sensor_id;sensor_type;location;lat;lon;timestamp;temperature;humidity
8850;DHT22;5638;50.860;4.698;2022-09-29T00:00:52;9.90;99.90
8850;DHT22;5638;50.860;4.698;2022-09-29T00:03:19;9.90;99.90
8850;DHT22;5638;50.860;4.698;2022-09-29T00:05:47;9.80;99.90
8850;DHT22;5638;50.860;4.698;2022-09-29T00:08:18;9.70;99.90
8850;DHT22;5638;50.860;4.698;2022-09-29T00:10:45;9.70;99.90
8850;DHT22;5638;50.860;4.698;2022-09-29T00:13:13;9.70;99.90
8850;DHT22;5638;50.860;4.698;2022-09-29T00:15:39;9.60;99.90
8850;DHT22;5638;50.860;4.698;2022-09-29T00:18:06;9.70;99.90
8850;DHT22;5638;50.860;4.698;2022-09-29T00:20:33;9.60;99.90
8850;DHT22;5638;50.860;4.698;2022-09-29T00:22:59;9.70;99.90
8850;DHT22;5638;50.860;4.698;2022-09-29T00:25:25;9.70;99.90
8850;DHT22;5638;50.860;4.698;2022-09-29T00:27:51;9.60;99.90
8850;DHT22;5638;50.860;4.698;2022-09-29T00:30:17;9.60;99.90
8850;DHT22;5638;50.860;4.698;2022-09-29T00:32:43;9.60;99.90
8850;DHT22;5638;50.860;4.698;2022-09-29T00:35:09;9.50;99.90
8850;DHT22;5638;50.860;4.698;2022-09-29T00:37:35;9.50;99.90
8850;DHT22;5638;50.860;4.698;2022-09-29T00:40:03;9.50;99.90
8850;DHT22;5638;50.860;4.698;2022-09-29T00:42:29;9.50;99.90
8850;DHT22;5638;50.860;4.698;2022-09-29T00:45:17;9.50;99.90
8850;DHT22;5638;50.860;4.698;2022-09-29T00:47:49;9.50;99.90
8850;DHT22;5638;50.860;4.698;2022-09-29T00:50:45;9.50;99.90
8850;DHT22;5638;50.860;4.698;2022-09-29T00:53:15;9.40;99.90
8850;DHT22;5638;50.860;4.698;2022-09-29T00:55:52;9.50;99.90
8850;DHT22;5638;50.860;4.698;2022-09-29T00:58:34;9.40;99.90
8850;DHT22;5638;50.860;4.698;2022-09-29T01:01:05;9.30;99.90
8850;DHT22;5638;50.860;4.698;2022-09-29T01:03:36;9.40;99.90
8850;DHT22;5638;50.860;4.698;2022-09-29T01:06:22;9.40;99.90
8850;DHT22;5638;50.860;4.698;2022-09-29T01:09:04;9.40;99.90
8850;DHT22;5638;50.860;4.698;2022-09-29T01:11:35;9.40;99.90
8850;DHT22;5638;50.860;4.698;2022-09-29T01:14:04;9.40;99.90
8850;DHT22;5638;50.860;4.698;2022-09-29T01:16:34;9.40;99.90
8850;DHT22;5638;50.860;4.698;2022-09-29T01:19:07;9.30;99.90
8850;DHT22;5638;50.860;4.698;2022-09-29T01:31:19;9.20;99.90
8850;DHT22;5638;50.860;4.698;2022-09-29T01:34:23;9.20;99.90
8850;DHT22;5638;50.860;4.698;2022-09-29T01:40:28;9.30;99.90
8850;DHT22;5638;50.860;4.698;2022-09-29T01:43:07;9.30;99.90
8850;DHT22;5638;50.860;4.698;2022-09-29T01:45:45;9.20;99.90
8850;DHT22;5638;50.860;4.698;2022-09-29T01:48:24;9.20;99.90
8850;DHT22;5638;50.860;4.698;2022-09-29T01:50:57;9.20;99.90
8850;DHT22;5638;50.860;4.698;2022-09-29T01:53:32;9.20;99.90
8850;DHT22;5638;50.860;4.698;2022-09-29T01:56:07;9.10;99.90
8850;DHT22;5638;50.860;4.698;2022-09-29T01:59:04;9.10;99.90
8850;DHT22;5638;50.860;4.698;2022-09-29T02:01:40;9.10;99.90
8850;DHT22;5638;50.860;4.698;2022-09-29T02:04:20;9.10;99.90
8850;DHT22;5638;50.860;4.698;2022-09-29T02:07:03;9.10;99.90
8850;DHT22;5638;50.860;4.698;2022-09-29T02:09:40;9.10;99.90
8850;DHT22;5638;50.860;4.698;2022-09-29T02:12:13;9.10;99.90
8850;DHT22;5638;50.860;4.698;2022-09-29T02:14:46;9.20;99.90
8850;DHT22;5638;50.860;4.698;2022-09-29T02:17:19;9.10;99.90
8850;DHT22;5638;50.860;4.698;2022-09-29T02:19:50;9.00;99.90
8850;DHT22;5638;50.860;4.698;2022-09-29T02:22:17;9.00;99.90
8850;DHT22;5638;50.860;4.698;2022-09-29T02:24:44;9.00;99.90
8850;DHT22;5638;50.860;4.698;2022-09-29T02:27:11;9.00;99.90
8850;DHT22;5638;50.860;4.698;2022-09-29T02:29:38;9.00;99.90
8850;DHT22;5638;50.860;4.698;2022-09-29T02:32:05;8.90;99.90
8850;DHT22;5638;50.860;4.698;2022-09-29T02:34:37;8.90;99.90
8850;DHT22;5638;50.860;4.698;2022-09-29T02:43:20;8.80;99.90
8850;DHT22;5638;50.860;4.698;2022-09-29T02:51:48;8.80;99.90
8850;DHT22;5638;50.860;4.698;2022-09-29T03:00:13;8.80;99.90
8850;DHT22;5638;50.860;4.698;2022-09-29T03:02:42;8.70;99.90
8850;DHT22;5638;50.860;4.698;2022-09-29T03:05:11;8.80;99.90
8850;DHT22;5638;50.860;4.698;2022-09-29T03:07:39;8.70;99.90
8850;DHT22;5638;50.860;4.698;2022-09-29T03:10:07;8.80;99.90
8850;DHT22;5638;50.860;4.698;2022-09-29T03:12:35;8.80;99.90
8850;DHT22;5638;50.860;4.698;2022-09-29T03:15:02;8.70;99.90
8850;DHT22;5638;50.860;4.698;2022-09-29T03:17:29;8.70;99.90
8850;DHT22;5638;50.860;4.698;2022-09-29T03:19:55;8.70;99.90
8850;DHT22;5638;50.860;4.698;2022-09-29T03:22:22;8.80;99.90
8850;DHT22;5638;50.860;4.698;2022-09-29T03:24:48;8.70;99.90
8850;DHT22;5638;50.860;4.698;2022-09-29T03:27:14;8.70;99.90
8850;DHT22;5638;50.860;4.698;2022-09-29T03:29:40;8.80;99.90
8850;DHT22;5638;50.860;4.698;2022-09-29T03:32:06;8.70;99.90
8850;DHT22;5638;50.860;4.698;2022-09-29T03:34:32;8.60;99.90
8850;DHT22;5638;50.860;4.698;2022-09-29T03:36:58;8.60;99.90
8850;DHT22;5638;50.860;4.698;2022-09-29T03:39:25;8.60;99.90
8850;DHT22;5638;50.860;4.698;2022-09-29T03:41:51;8.60;99.90
8850;DHT22;5638;50.860;4.698;2022-09-29T03:44:17;8.50;99.90
8850;DHT22;5638;50.860;4.698;2022-09-29T03:46:43;8.50;99.90
8850;DHT22;5638;50.860;4.698;2022-09-29T03:49:10;8.50;99.90
8850;DHT22;5638;50.860;4.698;2022-09-29T03:51:37;8.50;99.90
8850;DHT22;5638;50.860;4.698;2022-09-29T03:54:03;8.60;99.90
8850;DHT22;5638;50.860;4.698;2022-09-29T03:56:29;8.60;99.90
8850;DHT22;5638;50.860;4.698;2022-09-29T03:58:55;8.60;99.90
8850;DHT22;5638;50.860;4.698;2022-09-29T04:01:21;8.60;99.90
8850;DHT22;5638;50.860;4.698;2022-09-29T04:03:47;8.60;99.90
8850;DHT22;5638;50.860;4.698;2022-09-29T04:06:13;8.60;99.90
8850;DHT22;5638;50.860;4.698;2022-09-29T04:08:39;8.60;99.90
8850;DHT22;5638;50.860;4.698;2022-09-29T04:11:05;8.50;99.90
8850;DHT22;5638;50.860;4.698;2022-09-29T04:13:32;8.40;99.90
8850;DHT22;5638;50.860;4.698;2022-09-29T04:16:03;8.50;99.90
8850;DHT22;5638;50.860;4.698;2022-09-29T04:18:30;8.40;99.90
8850;DHT22;5638;50.860;4.698;2022-09-29T04:20:58;8.40;99.90
8850;DHT22;5638;50.860;4.698;2022-09-29T04:23:28;8.40;99.90
8850;DHT22;5638;50.860;4.698;2022-09-29T04:25:58;8.50;99.90
8850;DHT22;5638;50.860;4.698;2022-09-29T04:28:26;8.50;99.90
8850;DHT22;5638;50.860;4.698;2022-09-29T04:30:53;8.50;99.90
8850;DHT22;5638;50.860;4.698;2022-09-29T04:33:18;8.50;99.90
8850;DHT22;5638;50.860;4.698;2022-09-29T04:35:44;8.50;99.90
8850;DHT22;5638;50.860;4.698;2022-09-29T04:38:11;8.50;99.90
8850;DHT22;5638;50.860;4.698;2022-09-29T04:40:36;8.50;99.90
8850;DHT22;5638;50.860;4.698;2022-09-29T04:43:03;8.50;99.90
8850;DHT22;5638;50.860;4.698;2022-09-29T04:45:30;8.40;99.90
8850;DHT22;5638;50.860;4.698;2022-09-29T04:47:56;8.40;99.90
8850;DHT22;5638;50.860;4.698;2022-09-29T04:50:22;8.30;99.90
8850;DHT22;5638;50.860;4.698;2022-09-29T04:52:49;8.30;99.90
8850;DHT22;5638;50.860;4.698;2022-09-29T04:55:15;8.20;99.90
8850;DHT22;5638;50.860;4.698;2022-09-29T04:57:42;8.20;99.90
8850;DHT22;5638;50.860;4.698;2022-09-29T05:00:09;8.20;99.90
8850;DHT22;5638;50.860;4.698;2022-09-29T05:02:36;8.10;99.90
8850;DHT22;5638;50.860;4.698;2022-09-29T05:05:03;8.20;99.90
8850;DHT22;5638;50.860;4.698;2022-09-29T05:07:32;8.20;99.90
8850;DHT22;5638;50.860;4.698;2022-09-29T05:09:59;8.10;99.90
8850;DHT22;5638;50.860;4.698;2022-09-29T05:12:25;8.10;99.90
8850;DHT22;5638;50.860;4.698;2022-09-29T05:14:51;8.20;99.90
8850;DHT22;5638;50.860;4.698;2022-09-29T05:17:16;8.20;99.90
8850;DHT22;5638;50.860;4.698;2022-09-29T05:19:42;8.20;99.90
8850;DHT22;5638;50.860;4.698;2022-09-29T05:22:08;8.20;99.90
8850;DHT22;5638;50.860;4.698;2022-09-29T05:24:34;8.10;99.90
8850;DHT22;5638;50.860;4.698;2022-09-29T05:26:59;8.10;99.90
8850;DHT22;5638;50.860;4.698;2022-09-29T05:29:25;8.10;99.90
8850;DHT22;5638;50.860;4.698;2022-09-29T05:31:51;8.10;99.90
8850;DHT22;5638;50.860;4.698;2022-09-29T05:34:17;8.10;99.90
8850;DHT22;5638;50.860;4.698;2022-09-29T05:36:43;8.20;99.90
8850;DHT22;5638;50.860;4.698;2022-09-29T05:39:10;8.10;99.90
8850;DHT22;5638;50.860;4.698;2022-09-29T05:41:36;8.10;99.90
8850;DHT22;5638;50.860;4.698;2022-09-29T05:44:02;8.10;99.90
8850;DHT22;5638;50.860;4.698;2022-09-29T05:46:28;8.10;99.90
8850;DHT22;5638;50.860;4.698;2022-09-29T05:48:55;8.10;99.90
8850;DHT22;5638;50.860;4.698;2022-09-29T05:51:23;8.10;99.90
8850;DHT22;5638;50.860;4.698;2022-09-29T05:53:51;8.10;99.90
8850;DHT22;5638;50.860;4.698;2022-09-29T05:56:21;8.10;99.90
8850;DHT22;5638;50.860;4.698;2022-09-29T05:58:48;8.10;99.90
8850;DHT22;5638;50.860;4.698;2022-09-29T06:01:18;8.00;99.90
8850;DHT22;5638;50.860;4.698;2022-09-29T06:03:48;8.00;99.90
8850;DHT22;5638;50.860;4.698;2022-09-29T06:06:19;8.00;99.90
8850;DHT22;5638;50.860;4.698;2022-09-29T06:08:48;7.90;99.90
8850;DHT22;5638;50.860;4.698;2022-09-29T06:11:20;8.00;99.90
8850;DHT22;5638;50.860;4.698;2022-09-29T06:13:50;8.10;99.90
8850;DHT22;5638;50.860;4.698;2022-09-29T06:16:18;8.20;99.90
8850;DHT22;5638;50.860;4.698;2022-09-29T06:18:46;8.20;99.90
8850;DHT22;5638;50.860;4.698;2022-09-29T06:21:16;8.30;99.90
8850;DHT22;5638;50.860;4.698;2022-09-29T06:23:43;8.30;99.90
8850;DHT22;5638;50.860;4.698;2022-09-29T06:26:12;8.30;99.90
8850;DHT22;5638;50.860;4.698;2022-09-29T06:28:39;8.30;99.90
8850;DHT22;5638;50.860;4.698;2022-09-29T06:31:10;8.30;99.90
8850;DHT22;5638;50.860;4.698;2022-09-29T06:33:38;8.30;99.90
8850;DHT22;5638;50.860;4.698;2022-09-29T06:38:58;8.40;99.90
8850;DHT22;5638;50.860;4.698;2022-09-29T06:41:25;8.50;99.90
8850;DHT22;5638;50.860;4.698;2022-09-29T06:43:53;8.60;99.90
8850;DHT22;5638;50.860;4.698;2022-09-29T06:46:19;8.70;99.90
8850;DHT22;5638;50.860;4.698;2022-09-29T06:48:45;8.80;99.90
8850;DHT22;5638;50.860;4.698;2022-09-29T06:51:11;8.80;99.90
8850;DHT22;5638;50.860;4.698;2022-09-29T06:53:38;8.90;99.90
8850;DHT22;5638;50.860;4.698;2022-09-29T06:56:05;9.10;99.90
8850;DHT22;5638;50.860;4.698;2022-09-29T06:58:31;9.30;99.90
8850;DHT22;5638;50.860;4.698;2022-09-29T07:01:02;9.40;99.90
8850;DHT22;5638;50.860;4.698;2022-09-29T07:03:31;9.40;99.90
8850;DHT22;5638;50.860;4.698;2022-09-29T07:06:01;9.50;99.90
8850;DHT22;5638;50.860;4.698;2022-09-29T07:08:28;9.60;99.90
8850;DHT22;5638;50.860;4.698;2022-09-29T07:10:54;9.80;99.90
8850;DHT22;5638;50.860;4.698;2022-09-29T07:13:20;9.90;99.90
8850;DHT22;5638;50.860;4.698;2022-09-29T07:15:46;10.00;99.90
8850;DHT22;5638;50.860;4.698;2022-09-29T07:18:12;10.10;99.90
8850;DHT22;5638;50.860;4.698;2022-09-29T07:20:38;10.10;99.90
8850;DHT22;5638;50.860;4.698;2022-09-29T07:23:06;10.30;99.90
8850;DHT22;5638;50.860;4.698;2022-09-29T07:25:35;10.30;99.90
8850;DHT22;5638;50.860;4.698;2022-09-29T07:28:01;10.50;99.90
8850;DHT22;5638;50.860;4.698;2022-09-29T07:30:27;10.50;99.90
8850;DHT22;5638;50.860;4.698;2022-09-29T07:32:53;10.70;99.90
8850;DHT22;5638;50.860;4.698;2022-09-29T07:35:23;10.70;99.90
8850;DHT22;5638;50.860;4.698;2022-09-29T07:37:55;10.80;99.90
8850;DHT22;5638;50.860;4.698;2022-09-29T07:40:22;10.90;99.90
8850;DHT22;5638;50.860;4.698;2022-09-29T07:42:49;11.00;99.90
8850;DHT22;5638;50.860;4.698;2022-09-29T07:45:16;11.10;99.90
8850;DHT22;5638;50.860;4.698;2022-09-29T07:47:43;11.20;99.90
8850;DHT22;5638;50.860;4.698;2022-09-29T07:50:09;11.40;99.90
8850;DHT22;5638;50.860;4.698;2022-09-29T07:52:35;11.50;99.90
8850;DHT22;5638;50.860;4.698;2022-09-29T07:55:02;11.40;99.90
8850;DHT22;5638;50.860;4.698;2022-09-29T07:57:28;11.50;99.90
8850;DHT22;5638;50.860;4.698;2022-09-29T07:59:55;11.60;99.90
8850;DHT22;5638;50.860;4.698;2022-09-29T08:02:24;11.70;99.90
8850;DHT22;5638;50.860;4.698;2022-09-29T08:04:50;11.70;99.90
8850;DHT22;5638;50.860;4.698;2022-09-29T08:07:16;11.80;99.90
8850;DHT22;5638;50.860;4.698;2022-09-29T08:09:42;12.00;99.90
8850;DHT22;5638;50.860;4.698;2022-09-29T08:12:08;12.20;99.90
8850;DHT22;5638;50.860;4.698;2022-09-29T08:14:34;12.30;99.90
8850;DHT22;5638;50.860;4.698;2022-09-29T08:17:00;12.50;99.90
8850;DHT22;5638;50.860;4.698;2022-09-29T08:19:26;12.70;99.90
8850;DHT22;5638;50.860;4.698;2022-09-29T08:21:53;12.90;99.90
8850;DHT22;5638;50.860;4.698;2022-09-29T08:24:18;13.00;99.90
8850;DHT22;5638;50.860;4.698;2022-09-29T08:26:44;13.10;99.90
8850;DHT22;5638;50.860;4.698;2022-09-29T08:29:12;13.10;99.90
8850;DHT22;5638;50.860;4.698;2022-09-29T08:31:38;13.20;99.90
8850;DHT22;5638;50.860;4.698;2022-09-29T08:34:04;13.40;99.90
8850;DHT22;5638;50.860;4.698;2022-09-29T08:36:31;13.50;99.90
8850;DHT22;5638;50.860;4.698;2022-09-29T08:38:56;13.60;99.90
8850;DHT22;5638;50.860;4.698;2022-09-29T08:47:29;14.00;99.90
8850;DHT22;5638;50.860;4.698;2022-09-29T08:50:10;14.40;99.90
8850;DHT22;5638;50.860;4.698;2022-09-29T08:52:43;14.70;99.90
8850;DHT22;5638;50.860;4.698;2022-09-29T08:57:46;14.70;99.90
8850;DHT22;5638;50.860;4.698;2022-09-29T09:00:17;14.80;99.90
8850;DHT22;5638;50.860;4.698;2022-09-29T09:06:05;14.70;99.90
8850;DHT22;5638;50.860;4.698;2022-09-29T09:17:45;15.60;99.90
8850;DHT22;5638;50.860;4.698;2022-09-29T09:20:34;16.20;99.90
8850;DHT22;5638;50.860;4.698;2022-09-29T09:26:03;16.60;99.90
8850;DHT22;5638;50.860;4.698;2022-09-29T09:28:56;16.90;99.90
8850;DHT22;5638;50.860;4.698;2022-09-29T09:31:39;17.10;99.90
8850;DHT22;5638;50.860;4.698;2022-09-29T09:36:54;17.50;99.90
8850;DHT22;5638;50.860;4.698;2022-09-29T09:39:40;17.80;99.90
8850;DHT22;5638;50.860;4.698;2022-09-29T09:42:20;17.90;99.90
8850;DHT22;5638;50.860;4.698;2022-09-29T09:47:49;17.70;99.90
8850;DHT22;5638;50.860;4.698;2022-09-29T09:50:27;17.50;99.90
8850;DHT22;5638;50.860;4.698;2022-09-29T09:53:01;17.60;99.90
8850;DHT22;5638;50.860;4.698;2022-09-29T09:55:29;18.00;99.90
8850;DHT22;5638;50.860;4.698;2022-09-29T10:01:04;18.50;99.90
8850;DHT22;5638;50.860;4.698;2022-09-29T10:03:31;18.80;99.90
8850;DHT22;5638;50.860;4.698;2022-09-29T10:05:58;18.80;99.90
8850;DHT22;5638;50.860;4.698;2022-09-29T10:08:27;18.80;99.90
8850;DHT22;5638;50.860;4.698;2022-09-29T10:10:57;19.00;99.90
8850;DHT22;5638;50.860;4.698;2022-09-29T10:13:26;19.10;99.90
8850;DHT22;5638;50.860;4.698;2022-09-29T10:18:43;19.60;99.90
8850;DHT22;5638;50.860;4.698;2022-09-29T10:21:36;19.50;99.90
8850;DHT22;5638;50.860;4.698;2022-09-29T10:24:17;19.20;99.90
8850;DHT22;5638;50.860;4.698;2022-09-29T10:26:49;19.50;99.90
8850;DHT22;5638;50.860;4.698;2022-09-29T10:29:24;19.80;99.90
8850;DHT22;5638;50.860;4.698;2022-09-29T10:32:03;19.90;99.90
8850;DHT22;5638;50.860;4.698;2022-09-29T10:34:30;19.70;99.90
8850;DHT22;5638;50.860;4.698;2022-09-29T10:39:48;19.50;99.90
8850;DHT22;5638;50.860;4.698;2022-09-29T10:42:30;19.50;99.90
8850;DHT22;5638;50.860;4.698;2022-09-29T10:45:12;19.90;99.90
8850;DHT22;5638;50.860;4.698;2022-09-29T10:47:42;19.80;99.90
8850;DHT22;5638;50.860;4.698;2022-09-29T10:50:17;20.00;99.90
8850;DHT22;5638;50.860;4.698;2022-09-29T10:52:56;20.20;99.90
8850;DHT22;5638;50.860;4.698;2022-09-29T10:55:28;20.60;99.90
8850;DHT22;5638;50.860;4.698;2022-09-29T10:58:00;20.90;99.90
8850;DHT22;5638;50.860;4.698;2022-09-29T11:00:44;21.30;99.90
8850;DHT22;5638;50.860;4.698;2022-09-29T11:03:19;21.30;99.90
8850;DHT22;5638;50.860;4.698;2022-09-29T11:05:58;20.80;99.90
8850;DHT22;5638;50.860;4.698;2022-09-29T11:08:27;20.10;99.90
8850;DHT22;5638;50.860;4.698;2022-09-29T11:11:03;20.40;99.90
8850;DHT22;5638;50.860;4.698;2022-09-29T11:13:44;20.30;99.90
8850;DHT22;5638;50.860;4.698;2022-09-29T11:16:37;20.10;99.90
8850;DHT22;5638;50.860;4.698;2022-09-29T11:19:08;19.60;99.90
8850;DHT22;5638;50.860;4.698;2022-09-29T11:30:31;18.90;99.90
8850;DHT22;5638;50.860;4.698;2022-09-29T11:44:28;20.70;99.90
8850;DHT22;5638;50.860;4.698;2022-09-29T11:49:52;21.40;99.90
8850;DHT22;5638;50.860;4.698;2022-09-29T11:55:13;22.00;99.70
8850;DHT22;5638;50.860;4.698;2022-09-29T12:01:42;21.90;99.50
8850;DHT22;5638;50.860;4.698;2022-09-29T12:05:37;21.40;99.70
8850;DHT22;5638;50.860;4.698;2022-09-29T12:13:42;19.60;99.90
8850;DHT22;5638;50.860;4.698;2022-09-29T12:16:14;19.30;99.90
8850;DHT22;5638;50.860;4.698;2022-09-29T12:21:43;18.70;99.90
8850;DHT22;5638;50.860;4.698;2022-09-29T12:24:20;18.50;99.90
8850;DHT22;5638;50.860;4.698;2022-09-29T12:26:55;18.30;99.90
8850;DHT22;5638;50.860;4.698;2022-09-29T12:29:36;18.10;99.90
8850;DHT22;5638;50.860;4.698;2022-09-29T12:32:41;18.00;99.90
8850;DHT22;5638;50.860;4.698;2022-09-29T12:35:32;17.90;99.90
8850;DHT22;5638;50.860;4.698;2022-09-29T12:38:20;17.70;99.90
8850;DHT22;5638;50.860;4.698;2022-09-29T12:43:47;17.70;99.90
8850;DHT22;5638;50.860;4.698;2022-09-29T12:46:30;17.70;99.90
8850;DHT22;5638;50.860;4.698;2022-09-29T12:49:18;17.70;99.90
8850;DHT22;5638;50.860;4.698;2022-09-29T12:51:49;17.80;99.90
8850;DHT22;5638;50.860;4.698;2022-09-29T12:54:36;18.30;99.90
8850;DHT22;5638;50.860;4.698;2022-09-29T12:57:14;18.70;99.90
8850;DHT22;5638;50.860;4.698;2022-09-29T12:59:55;18.60;99.90
8850;DHT22;5638;50.860;4.698;2022-09-29T13:11:12;17.80;99.90
8850;DHT22;5638;50.860;4.698;2022-09-29T13:19:53;17.30;99.90
8850;DHT22;5638;50.860;4.698;2022-09-29T13:28:51;17.20;99.90
8850;DHT22;5638;50.860;4.698;2022-09-29T13:31:25;17.20;99.90
8850;DHT22;5638;50.860;4.698;2022-09-29T13:33:55;17.80;99.90
8850;DHT22;5638;50.860;4.698;2022-09-29T13:36:38;18.40;99.90
8850;DHT22;5638;50.860;4.698;2022-09-29T13:39:28;18.70;99.90
8850;DHT22;5638;50.860;4.698;2022-09-29T13:41:54;18.80;99.90
8850;DHT22;5638;50.860;4.698;2022-09-29T13:44:28;19.10;99.90
8850;DHT22;5638;50.860;4.698;2022-09-29T13:46:54;19.50;99.90
8850;DHT22;5638;50.860;4.698;2022-09-29T13:51:57;20.00;99.90
8850;DHT22;5638;50.860;4.698;2022-09-29T14:04:50;20.70;99.90
8850;DHT22;5638;50.860;4.698;2022-09-29T14:07:44;20.50;99.90
8850;DHT22;5638;50.860;4.698;2022-09-29T14:10:37;20.30;99.90
8850;DHT22;5638;50.860;4.698;2022-09-29T14:13:40;20.00;99.90
8850;DHT22;5638;50.860;4.698;2022-09-29T14:20:25;19.40;99.90
8850;DHT22;5638;50.860;4.698;2022-09-29T14:33:10;19.00;99.90
8850;DHT22;5638;50.860;4.698;2022-09-29T14:44:15;18.60;99.90
8850;DHT22;5638;50.860;4.698;2022-09-29T14:46:55;18.50;99.90
8850;DHT22;5638;50.860;4.698;2022-09-29T14:50:08;18.50;99.90
8850;DHT22;5638;50.860;4.698;2022-09-29T14:53:10;18.40;99.90
8850;DHT22;5638;50.860;4.698;2022-09-29T15:04:44;18.10;99.90
8850;DHT22;5638;50.860;4.698;2022-09-29T15:07:16;18.10;99.90
8850;DHT22;5638;50.860;4.698;2022-09-29T15:09:53;18.10;99.90
8850;DHT22;5638;50.860;4.698;2022-09-29T15:12:25;18.00;99.90
8850;DHT22;5638;50.860;4.698;2022-09-29T15:14:57;18.10;99.90
8850;DHT22;5638;50.860;4.698;2022-09-29T15:25:48;18.00;99.90
8850;DHT22;5638;50.860;4.698;2022-09-29T15:28:36;18.00;99.90
8850;DHT22;5638;50.860;4.698;2022-09-29T15:31:17;18.00;99.90
8850;DHT22;5638;50.860;4.698;2022-09-29T15:33:46;18.00;99.90
8850;DHT22;5638;50.860;4.698;2022-09-29T15:36:27;17.90;99.90
8850;DHT22;5638;50.860;4.698;2022-09-29T15:41:29;17.80;99.90
8850;DHT22;5638;50.860;4.698;2022-09-29T15:44:14;17.70;99.90
8850;DHT22;5638;50.860;4.698;2022-09-29T15:46:48;17.70;99.90
8850;DHT22;5638;50.860;4.698;2022-09-29T15:49:21;17.80;99.90
8850;DHT22;5638;50.860;4.698;2022-09-29T15:51:56;17.80;99.90
8850;DHT22;5638;50.860;4.698;2022-09-29T15:54:26;17.80;99.90
8850;DHT22;5638;50.860;4.698;2022-09-29T15:56:59;17.70;99.90
8850;DHT22;5638;50.860;4.698;2022-09-29T15:59:46;17.70;99.90
8850;DHT22;5638;50.860;4.698;2022-09-29T16:02:37;17.70;99.90
8850;DHT22;5638;50.860;4.698;2022-09-29T16:05:18;17.70;99.90
8850;DHT22;5638;50.860;4.698;2022-09-29T16:07:49;17.70;99.90
8850;DHT22;5638;50.860;4.698;2022-09-29T16:10:26;17.70;99.90
8850;DHT22;5638;50.860;4.698;2022-09-29T16:13:01;17.70;99.90
8850;DHT22;5638;50.860;4.698;2022-09-29T16:15:34;17.70;99.90
8850;DHT22;5638;50.860;4.698;2022-09-29T16:18:08;17.70;99.90
8850;DHT22;5638;50.860;4.698;2022-09-29T16:20:41;17.70;99.90
8850;DHT22;5638;50.860;4.698;2022-09-29T16:23:34;17.80;99.90
8850;DHT22;5638;50.860;4.698;2022-09-29T16:26:09;17.90;99.90
8850;DHT22;5638;50.860;4.698;2022-09-29T16:29:02;17.90;99.90
8850;DHT22;5638;50.860;4.698;2022-09-29T16:31:28;17.90;99.90
8850;DHT22;5638;50.860;4.698;2022-09-29T16:33:57;17.80;99.90
8850;DHT22;5638;50.860;4.698;2022-09-29T16:36:32;17.70;99.90
8850;DHT22;5638;50.860;4.698;2022-09-29T16:39:05;17.50;99.90
8850;DHT22;5638;50.860;4.698;2022-09-29T16:41:33;17.50;99.90
8850;DHT22;5638;50.860;4.698;2022-09-29T16:49:36;16.80;99.90
8850;DHT22;5638;50.860;4.698;2022-09-29T16:54:41;16.50;99.90
8850;DHT22;5638;50.860;4.698;2022-09-29T16:57:25;16.40;99.90
8850;DHT22;5638;50.860;4.698;2022-09-29T17:00:09;16.30;99.90
8850;DHT22;5638;50.860;4.698;2022-09-29T17:02:36;16.20;99.90
8850;DHT22;5638;50.860;4.698;2022-09-29T17:05:02;16.30;99.90
8850;DHT22;5638;50.860;4.698;2022-09-29T17:07:30;16.20;99.90
8850;DHT22;5638;50.860;4.698;2022-09-29T17:09:58;16.20;99.90
8850;DHT22;5638;50.860;4.698;2022-09-29T17:12:29;16.30;99.90
8850;DHT22;5638;50.860;4.698;2022-09-29T17:14:55;16.20;99.90
8850;DHT22;5638;50.860;4.698;2022-09-29T17:17:26;16.20;99.90
8850;DHT22;5638;50.860;4.698;2022-09-29T17:19:54;16.20;99.90
8850;DHT22;5638;50.860;4.698;2022-09-29T17:22:34;16.20;99.90
8850;DHT22;5638;50.860;4.698;2022-09-29T17:25:04;16.20;99.90
8850;DHT22;5638;50.860;4.698;2022-09-29T17:27:30;16.30;99.90
8850;DHT22;5638;50.860;4.698;2022-09-29T17:30:18;16.30;99.90
8850;DHT22;5638;50.860;4.698;2022-09-29T17:32:50;16.30;99.90
8850;DHT22;5638;50.860;4.698;2022-09-29T17:35:21;16.20;99.90
8850;DHT22;5638;50.860;4.698;2022-09-29T17:37:50;16.10;99.90
8850;DHT22;5638;50.860;4.698;2022-09-29T17:40:26;16.00;99.90
8850;DHT22;5638;50.860;4.698;2022-09-29T17:42:54;15.90;99.90
8850;DHT22;5638;50.860;4.698;2022-09-29T17:45:23;15.80;99.90
8850;DHT22;5638;50.860;4.698;2022-09-29T17:47:50;15.80;99.90
8850;DHT22;5638;50.860;4.698;2022-09-29T17:52:54;15.60;99.90
8850;DHT22;5638;50.860;4.698;2022-09-29T17:55:20;15.50;99.90
8850;DHT22;5638;50.860;4.698;2022-09-29T17:57:48;15.40;99.90
8850;DHT22;5638;50.860;4.698;2022-09-29T18:00:32;15.30;99.90
8850;DHT22;5638;50.860;4.698;2022-09-29T18:03:12;15.20;99.90
8850;DHT22;5638;50.860;4.698;2022-09-29T18:05:45;15.10;99.90
8850;DHT22;5638;50.860;4.698;2022-09-29T18:08:14;15.20;99.90
8850;DHT22;5638;50.860;4.698;2022-09-29T18:10:46;15.00;99.90
8850;DHT22;5638;50.860;4.698;2022-09-29T18:13:23;14.80;99.90
8850;DHT22;5638;50.860;4.698;2022-09-29T18:15:54;14.70;99.90
8850;DHT22;5638;50.860;4.698;2022-09-29T18:18:21;14.60;99.90
8850;DHT22;5638;50.860;4.698;2022-09-29T18:20:48;14.50;99.90
8850;DHT22;5638;50.860;4.698;2022-09-29T18:23:18;14.40;99.90
8850;DHT22;5638;50.860;4.698;2022-09-29T18:25:49;14.40;99.90
8850;DHT22;5638;50.860;4.698;2022-09-29T18:28:16;14.40;99.90
8850;DHT22;5638;50.860;4.698;2022-09-29T18:30:48;14.30;99.90
8850;DHT22;5638;50.860;4.698;2022-09-29T18:33:19;14.20;99.90
8850;DHT22;5638;50.860;4.698;2022-09-29T18:35:52;14.10;99.90
8850;DHT22;5638;50.860;4.698;2022-09-29T18:38:18;14.00;99.90
8850;DHT22;5638;50.860;4.698;2022-09-29T18:40:45;13.90;99.90
8850;DHT22;5638;50.860;4.698;2022-09-29T18:43:12;13.90;99.90
8850;DHT22;5638;50.860;4.698;2022-09-29T18:45:39;13.80;99.90
8850;DHT22;5638;50.860;4.698;2022-09-29T18:48:10;13.80;99.90
8850;DHT22;5638;50.860;4.698;2022-09-29T18:50:40;13.70;99.90
8850;DHT22;5638;50.860;4.698;2022-09-29T18:53:14;13.70;99.90
8850;DHT22;5638;50.860;4.698;2022-09-29T18:55:42;13.70;99.90
8850;DHT22;5638;50.860;4.698;2022-09-29T18:58:13;13.60;99.90
8850;DHT22;5638;50.860;4.698;2022-09-29T19:00:59;13.60;99.90
8850;DHT22;5638;50.860;4.698;2022-09-29T19:03:27;13.60;99.90
8850;DHT22;5638;50.860;4.698;2022-09-29T19:05:54;13.50;99.90
8850;DHT22;5638;50.860;4.698;2022-09-29T19:08:21;13.40;99.90
8850;DHT22;5638;50.860;4.698;2022-09-29T19:10:52;13.30;99.90
8850;DHT22;5638;50.860;4.698;2022-09-29T19:13:20;13.30;99.90
8850;DHT22;5638;50.860;4.698;2022-09-29T19:15:47;13.30;99.90
8850;DHT22;5638;50.860;4.698;2022-09-29T19:18:19;13.20;99.90
8850;DHT22;5638;50.860;4.698;2022-09-29T19:20:54;13.20;99.90
8850;DHT22;5638;50.860;4.698;2022-09-29T19:23:22;13.20;99.90
8850;DHT22;5638;50.860;4.698;2022-09-29T19:25:51;13.00;99.90
8850;DHT22;5638;50.860;4.698;2022-09-29T19:28:19;13.00;99.90
8850;DHT22;5638;50.860;4.698;2022-09-29T19:30:47;12.90;99.90
8850;DHT22;5638;50.860;4.698;2022-09-29T19:33:17;12.90;99.90
8850;DHT22;5638;50.860;4.698;2022-09-29T19:35:49;12.90;99.90
8850;DHT22;5638;50.860;4.698;2022-09-29T19:38:18;12.90;99.90
8850;DHT22;5638;50.860;4.698;2022-09-29T19:40:46;12.80;99.90
8850;DHT22;5638;50.860;4.698;2022-09-29T19:43:13;12.80;99.90
8850;DHT22;5638;50.860;4.698;2022-09-29T19:45:40;12.90;99.90
8850;DHT22;5638;50.860;4.698;2022-09-29T19:48:10;12.90;99.90
8850;DHT22;5638;50.860;4.698;2022-09-29T19:50:40;13.00;99.90
8850;DHT22;5638;50.860;4.698;2022-09-29T19:53:25;13.00;99.90
8850;DHT22;5638;50.860;4.698;2022-09-29T19:55:51;12.90;99.90
8850;DHT22;5638;50.860;4.698;2022-09-29T19:58:18;12.70;99.90